Time;durP1;ratioP1;P1;durP2;ratioP2;P2;SDS_P1;SDS_P2;PMS_P1;PMS_P2;Temp;Humidity;BMP_temperature;BMP_pressure;BME280_temperature;BME280_humidity;BME280_pressure;Samples;Min_cycle;Max_cycle;Signal;HPM_P1;HPM_P2
2022/04/24 00:00:33;;;;;;;20.60;12.95;;;;;;;4.59;53.52;100151.20;1628193;86;21069;-78
2022/04/24 00:03:00;;;;;;;14.83;11.63;;;;;;;4.61;53.65;100153.34;1626727;88;21097;-78
2022/04/24 00:05:26;;;;;;;17.57;11.30;;;;;;;4.60;53.62;100153.33;1628208;88;21117;-78
2022/04/24 00:07:52;;;;;;;16.80;12.63;;;;;;;4.58;53.66;100147.36;1624922;86;21334;-78
2022/04/24 00:10:18;;;;;;;17.27;12.23;;;;;;;4.54;53.72;100143.94;1621545;88;21077;-78
2022/04/24 00:12:45;;;;;;;20.02;12.00;;;;;;;4.53;53.86;100151.19;1628194;88;20993;-78
2022/04/24 00:15:11;;;;;;;14.93;11.70;;;;;;;4.52;53.89;100140.95;1625604;86;21525;-78
2022/04/24 00:17:37;;;;;;;19.02;12.93;;;;;;;4.49;54.01;100135.83;1613177;88;21041;-78
2022/04/24 00:20:05;;;;;;;24.10;13.90;;;;;;;4.49;54.17;100137.95;1628350;88;20969;-78
2022/04/24 00:22:34;;;;;;;23.62;14.53;;;;;;;4.47;54.13;100134.97;1629789;88;20890;-78
2022/04/24 00:25:00;;;;;;;22.93;13.97;;;;;;;4.44;54.22;100133.69;1629725;86;20978;-78
2022/04/24 00:27:25;;;;;;;21.57;13.60;;;;;;;4.40;54.25;100134.11;1630028;88;20953;-78
2022/04/24 00:29:52;;;;;;;18.93;13.63;;;;;;;4.37;54.24;100125.57;1630276;88;21668;-78
2022/04/24 00:32:18;;;;;;;22.35;13.95;;;;;;;4.36;54.38;100122.16;1629761;88;20978;-78
2022/04/24 00:34:44;;;;;;;20.80;13.83;;;;;;;4.34;54.39;100118.74;1628950;86;21395;-78
2022/04/24 00:37:11;;;;;;;19.25;12.60;;;;;;;4.32;54.35;100116.61;1626435;88;20922;-77
2022/04/24 00:39:37;;;;;;;21.75;13.15;;;;;;;4.29;54.54;100116.17;1629737;88;20928;-78
2022/04/24 00:42:04;;;;;;;19.15;13.72;;;;;;;4.27;54.57;100115.75;1629901;87;20934;-78
2022/04/24 00:44:32;;;;;;;20.37;13.35;;;;;;;4.29;54.57;100124.28;1609401;88;21574;-78
2022/04/24 00:47:15;;;;;;;20.23;14.07;;;;;;;4.25;54.57;100123.84;1611017;88;20899;-78
2022/04/24 00:49:42;;;;;;;21.60;14.68;;;;;;;4.20;54.70;100124.26;1628142;86;20963;-78
2022/04/24 00:52:10;;;;;;;20.55;14.40;;;;;;;4.15;54.85;100119.59;1656549;86;20947;-78
2022/04/24 00:54:36;;;;;;;19.32;13.60;;;;;;;4.12;54.84;100123.00;1633514;86;21392;-78
2022/04/24 00:57:08;;;;;;;25.92;13.70;;;;;;;4.14;54.99;100123.00;1629830;88;21546;-78
2022/04/24 00:59:41;;;;;;;20.20;13.08;;;;;;;4.15;54.92;100121.72;1629705;86;20922;-79
2022/04/24 01:02:08;;;;;;;;;;;;;;;4.13;54.91;100114.47;1632395;88;20918;-78
2022/04/24 01:04:36;;;;;;;21.45;13.35;;;;;;;4.08;55.50;100114.03;1630384;86;20448;-78
2022/04/24 01:07:04;;;;;;;18.65;13.38;;;;;;;4.01;54.93;100114.44;1628983;88;21565;-78
2022/04/24 01:09:32;;;;;;;;;;;;;;;3.95;55.01;100111.87;1631163;88;21510;-78
2022/04/24 01:11:58;;;;;;;20.77;13.60;;;;;;;3.91;55.71;100111.00;1629368;86;20176;-78
2022/04/24 01:14:26;;;;;;;21.33;12.93;;;;;;;3.89;55.16;100108.02;1628969;87;21489;-78
2022/04/24 01:16:54;;;;;;;15.35;12.78;;;;;;;3.90;55.26;100105.88;1627109;87;21087;-78
2022/04/24 01:19:21;;;;;;;17.60;12.90;;;;;;;3.91;55.23;100109.72;1628712;88;21069;-78
2022/04/24 01:21:49;;;;;;;18.98;13.08;;;;;;;3.89;55.38;100113.12;1626854;86;21541;-78
2022/04/24 01:24:20;;;;;;;20.88;12.53;;;;;;;3.89;55.32;100109.29;1629043;87;21001;-79
2022/04/24 01:26:46;;;;;;;17.30;13.43;;;;;;;3.83;55.33;100109.27;1627285;86;21537;-78
2022/04/24 01:29:14;;;;;;;19.73;12.60;;;;;;;3.76;55.36;100110.09;1618350;88;21554;-78
2022/04/24 01:31:41;;;;;;;18.00;14.43;;;;;;;3.73;55.56;100103.70;1610942;88;21541;-78
2022/04/24 01:34:08;;;;;;;19.77;12.30;;;;;;;3.68;55.60;100104.10;1628779;87;21642;-78
2022/04/24 01:36:34;;;;;;;19.37;13.68;;;;;;;3.61;55.55;100104.11;1629355;87;21484;-78
2022/04/24 01:39:00;;;;;;;18.97;13.83;;;;;;;3.59;55.76;100104.95;1625807;86;21022;-78
2022/04/24 01:41:27;;;;;;;17.40;12.98;;;;;;;3.58;55.84;100104.52;1628788;88;21501;-78
2022/04/24 01:43:53;;;;;;;24.50;13.23;;;;;;;3.59;55.80;100100.69;1629222;88;21010;-78
2022/04/24 01:46:19;;;;;;;18.07;12.15;;;;;;;3.57;55.84;100101.53;1630093;87;21017;-78
2022/04/24 01:48:45;;;;;;;18.32;13.08;;;;;;;3.56;55.89;100102.38;1627977;86;21049;-78
2022/04/24 01:51:14;;;;;;;21.00;13.43;;;;;;;3.54;55.81;100104.08;1629064;87;21474;-78
2022/04/24 01:53:42;;;;;;;15.90;12.28;;;;;;;3.47;55.83;100099.36;1628954;88;21513;-78
2022/04/24 01:56:08;;;;;;;17.67;12.82;;;;;;;3.41;55.91;100098.48;1621794;86;21564;-78
2022/04/24 01:58:36;;;;;;;20.32;13.13;;;;;;;3.33;55.98;100098.44;1629073;86;21601;-78
2022/04/24 02:01:03;;;;;;;19.67;13.58;;;;;;;3.28;56.11;100089.89;1628514;87;21493;-78
2022/04/24 02:03:30;;;;;;;20.32;14.13;;;;;;;3.26;56.07;100092.44;1620998;87;21519;-78
2022/04/24 02:05:57;;;;;;;23.67;15.10;;;;;;;3.23;56.20;100096.26;1619814;86;21069;-78
2022/04/24 02:08:24;;;;;;;25.80;16.25;;;;;;;3.21;56.37;100094.12;1629088;88;21472;-78
2022/04/24 02:10:51;;;;;;;27.05;17.42;;;;;;;3.21;56.38;100090.28;1630560;88;21419;-78
2022/04/24 02:13:18;;;;;;;37.63;19.70;;;;;;;3.11;56.46;100073.66;1622599;87;21507;-78
2022/04/24 02:15:45;;;;;;;;;;;;;;;3.11;56.46;100073.66;1622454;88;20941;-78
2022/04/24 02:18:12;;;;;;;22.62;14.68;;;;;;;3.18;57.31;100093.25;1603455;89;20409;-79
2022/04/24 02:20:38;;;;;;;28.73;15.98;;;;;;;3.09;56.56;100092.80;1615142;87;22003;-78
2022/04/24 02:23:04;;;;;;;27.17;15.78;;;;;;;3.06;56.81;100088.95;1603948;89;21345;-79
2022/04/24 02:25:31;;;;;;;23.87;16.40;;;;;;;3.05;56.85;100089.80;1603863;89;21575;-79
2022/04/24 02:27:57;;;;;;;23.00;15.18;;;;;;;3.05;56.73;100085.97;1623254;88;20939;-78
2022/04/24 02:30:27;;;;;;;22.77;13.98;;;;;;;2.90;56.67;100064.16;1613746;88;21423;-78
2022/04/24 02:32:57;;;;;;;22.77;14.07;;;;;;;2.90;56.67;100064.16;1611429;88;21436;-78
2022/04/24 02:35:25;;;;;;;23.50;14.95;;;;;;;2.97;56.73;100086.34;1620123;88;21435;-78
2022/04/24 02:37:51;;;;;;;21.57;14.45;;;;;;;2.94;56.79;100078.66;1643471;86;21427;-79
2022/04/24 02:40:21;;;;;;;21.35;15.38;;;;;;;2.91;56.95;100083.33;1637438;87;20909;-79
2022/04/24 02:42:46;;;;;;;23.00;15.98;;;;;;;2.90;56.84;100080.77;1643055;86;21456;-77
2022/04/24 02:45:12;;;;;;;25.40;15.10;;;;;;;2.85;56.78;100081.16;1630744;87;20924;-78
2022/04/24 02:47:38;;;;;;;26.20;15.60;;;;;;;2.80;56.88;100074.73;1609594;88;21317;-78
2022/04/24 02:50:05;;;;;;;27.27;15.72;;;;;;;2.80;56.92;100073.46;1633527;87;20958;-78
2022/04/24 02:52:32;;;;;;;28.00;15.95;;;;;;;2.77;56.93;100082.80;1633018;87;20919;-78
2022/04/24 02:54:58;;;;;;;19.12;12.33;;;;;;;2.72;57.00;100075.53;1618393;85;21446;-78
2022/04/24 02:57:24;;;;;;;24.37;15.55;;;;;;;2.71;57.26;100078.50;1631286;86;20942;-78
2022/04/24 02:59:50;;;;;;;22.30;15.55;;;;;;;2.72;57.14;100075.53;1613788;87;20899;-78
2022/04/24 03:02:17;;;;;;;25.20;16.23;;;;;;;2.69;57.13;100073.81;1637498;85;20865;-78
2022/04/24 03:04:45;;;;;;;27.40;16.50;;;;;;;2.66;57.23;100072.52;1619634;86;28508;-78
2022/04/24 03:07:11;;;;;;;28.47;15.60;;;;;;;2.62;57.27;100070.78;1638775;87;20992;-78
2022/04/24 03:09:41;;;;;;;24.40;16.17;;;;;;;2.56;57.32;100073.31;1637260;87;21064;-78
2022/04/24 03:12:09;;;;;;;25.80;17.12;;;;;;;2.53;57.38;100074.56;1637442;87;21084;-78
2022/04/24 03:14:35;;;;;;;22.95;15.32;;;;;;;2.55;57.46;100076.71;1637990;86;21174;-78
2022/04/24 03:17:02;;;;;;;22.62;14.90;;;;;;;2.52;57.42;100078.81;1641037;87;27204;-78
2022/04/24 03:19:28;;;;;;;34.05;18.48;;;;;;;2.48;57.41;100073.25;1642913;87;21074;-78
2022/04/24 03:21:54;;;;;;;25.00;16.20;;;;;;;2.44;57.59;100074.49;1637102;87;21189;-78
2022/04/24 03:24:20;;;;;;;22.27;15.30;;;;;;;2.42;57.59;100076.17;1653606;86;184888;-78
2022/04/24 03:26:46;;;;;;;24.25;16.07;;;;;;;2.37;57.53;100071.45;1664309;85;21518;-78
2022/04/24 03:29:12;;;;;;;24.12;15.48;;;;;;;2.35;57.71;100066.34;1664372;85;21660;-78
2022/04/24 03:31:38;;;;;;;23.52;16.12;;;;;;;2.37;57.69;100074.01;1634093;85;21076;-78
2022/04/24 03:34:06;;;;;;;21.77;15.40;;;;;;;2.38;57.69;100076.99;1637735;87;21052;-78
2022/04/24 03:36:32;;;;;;;25.70;16.00;;;;;;;2.35;57.60;100072.72;1637405;87;21439;-79
2022/04/24 03:38:58;;;;;;;23.00;16.00;;;;;;;2.31;57.68;100070.56;1637631;87;20941;-79
2022/04/24 03:41:24;;;;;;;24.85;15.90;;;;;;;2.30;57.70;100071.41;1644256;86;21049;-78
2022/04/24 03:43:50;;;;;;;26.02;16.42;;;;;;;2.24;57.74;100072.62;1637270;87;21077;-79
2022/04/24 03:46:16;;;;;;;26.85;17.12;;;;;;;2.21;57.83;100073.02;1636711;87;21504;-78
2022/04/24 03:48:42;;;;;;;24.92;15.58;;;;;;;2.21;58.04;100070.05;1637403;86;21048;-78
2022/04/24 03:51:08;;;;;;;27.20;16.17;;;;;;;2.20;57.86;100068.75;1642683;86;21089;-78
2022/04/24 03:53:34;;;;;;;24.63;16.67;;;;;;;2.20;57.86;100068.75;1645759;86;21041;-79
2022/04/24 03:56:00;;;;;;;29.73;16.87;;;;;;;2.20;58.12;100070.89;1623542;85;21650;-78
2022/04/24 03:58:26;;;;;;;32.50;19.67;;;;;;;2.21;58.15;100065.36;1637737;87;21588;-78
2022/04/24 04:00:52;;;;;;;27.13;15.93;;;;;;;2.24;58.26;100064.97;1654122;86;21072;-78
2022/04/24 04:03:18;;;;;;;25.00;17.30;;;;;;;2.27;58.30;100065.00;1635831;87;21013;-78
2022/04/24 04:05:44;;;;;;;30.08;18.23;;;;;;;2.26;58.35;100059.46;1614649;86;21020;-78
2022/04/24 04:08:18;;;;;;;31.73;18.87;;;;;;;2.32;58.41;100058.23;1628080;86;21087;-78
2022/04/24 04:10:44;;;;;;;35.63;19.05;;;;;;;2.35;58.47;100056.56;1634710;87;20922;-78
2022/04/24 04:13:10;;;;;;;29.90;19.30;;;;;;;2.39;58.59;100049.36;1637641;86;20980;-78
2022/04/24 04:15:37;;;;;;;30.08;18.17;;;;;;;2.43;58.69;100053.22;1641082;87;21065;-80
2022/04/24 04:18:03;;;;;;;35.80;19.03;;;;;;;2.50;58.71;100055.41;1635868;87;20997;-79
2022/04/24 04:20:29;;;;;;;36.63;21.45;;;;;;;2.54;58.72;100050.34;1635224;87;21128;-78
2022/04/24 04:22:56;;;;;;;36.23;20.82;;;;;;;2.58;58.76;100048.66;1637011;86;21092;-78
2022/04/24 04:25:26;;;;;;;33.53;20.68;;;;;;;2.61;58.90;100038.44;1635580;87;21080;-78
2022/04/24 04:27:53;;;;;;;36.20;23.75;;;;;;;2.64;59.12;100044.42;1636064;87;21395;-78
2022/04/24 04:30:20;;;;;;;35.20;24.12;;;;;;;2.71;59.19;100040.22;1631203;87;20961;-79
2022/04/24 04:32:48;;;;;;;44.27;26.25;;;;;;;2.82;59.31;100036.45;1634472;86;20949;-78
2022/04/24 04:35:14;;;;;;;44.70;25.35;;;;;;;2.91;59.30;100039.06;1634169;87;21013;-78
2022/04/24 04:37:40;;;;;;;39.98;24.98;;;;;;;2.97;59.36;100036.13;1639637;85;21671;-78
2022/04/24 04:40:08;;;;;;;31.42;19.82;;;;;;;3.03;59.55;100036.58;1621808;86;20988;-78
2022/04/24 04:42:34;;;;;;;31.07;20.32;;;;;;;3.13;59.65;100035.75;1622478;86;21322;-79
2022/04/24 04:45:06;;;;;;;25.52;17.60;;;;;;;3.24;59.71;100028.98;1620490;86;21838;-78
2022/04/24 04:47:31;;;;;;;24.85;16.50;;;;;;;3.38;59.72;100030.74;1621436;86;21819;-79
2022/04/24 04:49:57;;;;;;;23.95;15.75;;;;;;;3.53;59.83;100029.52;1658926;85;20920;-78
2022/04/24 04:52:24;;;;;;;20.20;15.15;;;;;;;3.65;59.96;100029.09;1675600;85;20917;-78
2022/04/24 04:54:50;;;;;;;23.20;13.93;;;;;;;3.80;59.98;100023.59;1684693;84;20976;-78
2022/04/24 04:57:16;;;;;;;26.82;14.30;;;;;;;3.95;60.07;100029.59;1679168;85;20910;-79
2022/04/24 04:59:42;;;;;;;16.05;12.80;;;;;;;4.11;60.08;100027.05;1680023;84;21015;-78
2022/04/24 05:02:08;;;;;;;19.05;12.47;;;;;;;4.27;60.22;100025.75;1685459;84;20905;-78
2022/04/24 05:04:34;;;;;;;22.00;12.93;;;;;;;4.46;60.30;100022.77;1685427;84;20897;-79
2022/04/24 05:07:04;;;;;;;17.37;13.05;;;;;;;4.72;60.40;100020.56;1685652;83;20979;-78
2022/04/24 05:09:30;;;;;;;21.17;12.30;;;;;;;5.20;60.59;100022.15;1686582;84;20949;-79
2022/04/24 05:11:59;;;;;;;14.10;10.95;;;;;;;5.79;60.64;100017.10;1686041;84;20956;-78
2022/04/24 05:14:28;;;;;;;14.95;11.20;;;;;;;6.43;60.73;100012.78;1689890;84;20991;-78
2022/04/24 05:16:55;;;;;;;15.55;10.23;;;;;;;7.12;60.75;100008.62;1685384;84;21087;-78
2022/04/24 05:19:21;;;;;;;11.18;9.23;;;;;;;7.82;60.70;100015.38;1683578;84;21087;-78
2022/04/24 05:21:47;;;;;;;15.53;10.67;;;;;;;8.46;60.69;100012.23;1688264;84;20884;-78
2022/04/24 05:24:13;;;;;;;15.20;9.30;;;;;;;9.02;60.60;100016.34;1686880;84;20994;-78
2022/04/24 05:26:40;;;;;;;15.35;9.15;;;;;;;9.54;60.52;100008.82;1686593;84;21050;-78
2022/04/24 05:29:07;;;;;;;12.20;8.93;;;;;;;10.09;60.45;100011.43;1677295;84;21106;-78
2022/04/24 05:31:33;;;;;;;12.18;8.08;;;;;;;10.57;60.35;100014.11;1687053;84;21129;-78
2022/04/24 05:33:59;;;;;;;14.28;8.75;;;;;;;10.99;60.39;100012.99;1687614;84;20998;-78
2022/04/24 05:36:26;;;;;;;12.30;8.50;;;;;;;11.42;60.31;100022.55;1687230;84;20941;-79
2022/04/24 05:38:52;;;;;;;9.28;8.03;;;;;;;11.85;60.28;100023.87;1686881;84;21652;-79
2022/04/24 05:41:18;;;;;;;12.63;8.13;;;;;;;12.30;60.21;100027.19;1686450;84;21015;-78
2022/04/24 05:43:44;;;;;;;13.25;8.68;;;;;;;12.67;60.16;100032.83;1688618;84;21135;-79
2022/04/24 05:46:10;;;;;;;15.70;8.53;;;;;;;12.85;60.03;100029.61;1686480;84;21116;-83
2022/04/24 05:48:36;;;;;;;10.50;7.97;;;;;;;13.05;60.01;100023.69;1689043;84;21046;-75
2022/04/24 05:51:02;;;;;;;11.28;8.55;;;;;;;13.09;59.93;100019.24;1684988;84;21119;-76
2022/04/24 05:53:29;;;;;;;13.80;8.33;;;;;;;13.28;60.06;100031.98;1687869;84;21712;-76
2022/04/24 05:55:55;;;;;;;10.30;7.80;;;;;;;13.41;59.90;100023.30;1687175;83;21129;-76
2022/04/24 05:58:21;;;;;;;9.18;8.10;;;;;;;13.55;59.77;100023.61;1683870;84;21130;-76
2022/04/24 06:00:47;;;;;;;9.07;7.23;;;;;;;13.79;59.74;100022.67;1678799;84;21053;-76
2022/04/24 06:03:13;;;;;;;10.73;7.57;;;;;;;13.94;59.57;100027.73;1673607;83;21048;-76
2022/04/24 06:05:40;;;;;;;9.20;7.20;;;;;;;14.12;59.46;100028.73;1658631;84;21142;-76
2022/04/24 06:08:06;;;;;;;7.90;7.07;;;;;;;14.32;59.45;100019.68;1676637;84;22224;-76
2022/04/24 06:10:39;;;;;;;13.18;7.47;;;;;;;14.53;59.25;100031.84;1601309;87;21223;-77
2022/04/24 06:13:05;;;;;;;9.08;6.92;;;;;;;14.68;59.17;100027.72;1640600;86;21527;-77
2022/04/24 06:15:32;;;;;;;7.28;6.37;;;;;;;14.82;59.10;100027.14;1634583;86;27311;-76
2022/04/24 06:18:02;;;;;;;8.50;6.30;;;;;;;14.93;59.03;100028.83;1647286;86;21097;-75
2022/04/24 06:20:29;;;;;;;8.80;6.00;;;;;;;14.97;58.82;100030.84;1641420;86;21086;-75
2022/04/24 06:23:00;;;;;;;7.22;6.50;;;;;;;15.00;58.79;100030.27;1625212;86;21062;-75
2022/04/24 06:25:34;;;;;;;8.15;6.25;;;;;;;15.11;58.73;100024.09;1622579;86;20962;-75
2022/04/24 06:28:02;;;;;;;8.18;6.97;;;;;;;15.20;58.57;100030.20;1638785;86;20969;-76
2022/04/24 06:30:47;;;;;;;10.10;7.45;;;;;;;15.18;58.32;100027.28;1625328;86;21113;-76
2022/04/24 06:33:24;;;;;;;8.83;7.33;;;;;;;15.27;58.41;100029.94;1626877;86;21073;-76
2022/04/24 06:35:50;;;;;;;11.03;6.25;;;;;;;15.34;58.13;100027.44;1638880;86;21073;-76
2022/04/24 06:38:16;;;;;;;10.43;7.87;;;;;;;15.33;58.21;100025.30;1626938;86;21099;-76
2022/04/24 06:40:48;;;;;;;11.03;7.22;;;;;;;15.51;58.09;100035.34;1630445;86;21069;-76
2022/04/24 06:43:14;;;;;;;12.37;7.83;;;;;;;15.59;58.01;100035.03;1643656;86;21073;-76
2022/04/24 06:45:43;;;;;;;10.53;7.10;;;;;;;15.71;57.99;100026.16;1636316;86;21116;-76
2022/04/24 06:48:12;;;;;;;7.67;6.83;;;;;;;15.88;57.80;100032.73;1626349;86;21127;-77
2022/04/24 06:50:42;;;;;;;6.90;5.95;;;;;;;16.04;57.78;100032.02;1642362;86;21089;-77
2022/04/24 06:53:12;;;;;;;7.10;6.25;;;;;;;16.05;57.61;100036.31;1632936;85;21088;-76
2022/04/24 06:55:42;;;;;;;8.68;6.70;;;;;;;16.13;57.58;100032.39;1628453;86;21005;-76
2022/04/24 06:58:12;;;;;;;11.48;6.95;;;;;;;16.26;57.44;100026.13;1637330;86;21068;-76
2022/04/24 07:00:43;;;;;;;8.00;6.85;;;;;;;16.30;57.22;100029.43;1630315;86;21422;-76
2022/04/24 07:03:26;;;;;;;8.78;6.65;;;;;;;16.33;57.28;100027.52;1630510;86;21108;-76
2022/04/24 07:05:53;;;;;;;8.20;5.97;;;;;;;16.42;57.13;100033.59;1630656;85;21414;-76
2022/04/24 07:08:22;;;;;;;9.30;6.50;;;;;;;16.60;57.12;100021.86;1627858;86;21120;-76
2022/04/24 07:10:48;;;;;;;6.35;5.67;;;;;;;16.74;56.86;100022.85;1629738;86;20934;-76
2022/04/24 07:13:14;;;;;;;7.33;5.90;;;;;;;16.81;56.96;100016.39;1634910;86;21077;-76
2022/04/24 07:15:44;;;;;;;6.17;5.50;;;;;;;17.03;56.49;100009.61;1627095;86;21081;-76
2022/04/24 07:18:11;;;;;;;8.33;6.80;;;;;;;16.94;56.48;100004.86;1627569;86;21040;-76
2022/04/24 07:20:37;;;;;;;10.58;6.10;;;;;;;16.87;56.37;100012.63;1640710;86;21053;-76
2022/04/24 07:23:05;;;;;;;7.20;6.08;;;;;;;16.91;56.66;100008.94;1657800;85;223714;-76
2022/04/24 07:25:43;;;;;;;6.70;6.10;;;;;;;17.12;56.67;99999.98;1654057;85;20940;-76
2022/04/24 07:28:12;;;;;;;7.97;6.30;;;;;;;17.28;56.39;100006.98;1650557;85;20968;-76
2022/04/24 07:30:38;;;;;;;9.18;6.80;;;;;;;17.37;56.31;100005.19;1654521;85;21043;-76
2022/04/24 07:33:04;;;;;;;9.00;6.62;;;;;;;17.66;56.38;100000.56;1642720;85;21000;-76
2022/04/24 07:35:36;;;;;;;9.15;7.65;;;;;;;18.29;55.88;100004.37;1643457;86;20932;-76
2022/04/24 07:38:02;;;;;;;8.05;6.05;;;;;;;18.72;55.13;100001.41;1642712;85;20988;-76
2022/04/24 07:40:32;;;;;;;8.60;6.90;;;;;;;18.81;54.65;100002.63;1655119;85;20956;-76
2022/04/24 07:43:02;;;;;;;12.53;11.03;;;;;;;18.72;54.71;100004.48;1642215;87;20920;-76
2022/04/24 07:45:34;;;;;;;11.57;7.90;;;;;;;18.56;54.50;100002.39;1642364;85;20936;-76
2022/04/24 07:48:02;;;;;;;10.60;9.05;;;;;;;18.34;54.47;100001.02;1643360;85;20972;-76
2022/04/24 07:50:31;;;;;;;8.53;7.83;;;;;;;18.19;54.53;99999.31;1642814;85;21555;-76
2022/04/24 07:52:57;;;;;;;9.98;7.87;;;;;;;18.07;54.48;99996.08;1663532;84;20919;-76
2022/04/24 07:55:25;;;;;;;6.90;6.30;;;;;;;18.14;54.54;100000.03;1643288;86;20900;-76
2022/04/24 07:57:53;;;;;;;13.90;6.67;;;;;;;18.24;54.41;99993.31;1645138;85;20896;-76
2022/04/24 08:00:21;;;;;;;7.33;6.62;;;;;;;18.29;54.12;99991.74;1667695;84;20924;-76
2022/04/24 08:03:02;;;;;;;9.43;7.17;;;;;;;18.20;54.18;99982.65;1650671;85;20944;-76
2022/04/24 08:05:39;;;;;;;6.97;5.58;;;;;;;18.00;54.02;99974.66;1626973;81;5001060;-76
2022/04/24 08:08:14;;;;;;;7.62;6.25;;;;;;;17.87;54.02;99974.97;1739494;81;20953;-76
2022/04/24 08:10:49;;;;;;;8.33;5.55;;;;;;;17.77;53.82;99974.64;1731706;82;20945;-76
2022/04/24 08:13:18;;;;;;;7.30;5.58;;;;;;;17.68;53.73;99960.77;1736664;81;20941;-76
2022/04/24 08:15:45;;;;;;;8.50;6.40;;;;;;;17.54;53.34;99963.30;1733934;81;20952;-76
2022/04/24 08:18:11;;;;;;;6.67;4.97;;;;;;;17.33;53.15;99959.23;1733959;82;20921;-76
2022/04/24 08:20:38;;;;;;;5.65;5.05;;;;;;;17.23;53.16;99957.58;1724876;81;20938;-76
2022/04/24 08:23:05;;;;;;;5.45;4.90;;;;;;;17.31;53.02;99958.47;1737732;81;20936;-76
2022/04/24 08:25:36;;;;;;;;;;;;;;;17.62;53.10;99965.02;1742261;81;20937;-76
2022/04/24 08:28:06;;;;;;;4.95;4.53;;;;;;;18.01;52.92;99961.11;1731697;82;20116;-76
2022/04/24 08:30:35;;;;;;;5.20;4.70;;;;;;;18.34;52.71;99955.21;1723997;81;20902;-76
2022/04/24 08:33:01;;;;;;;5.12;4.62;;;;;;;18.67;52.07;99947.64;1708372;82;21044;-76
2022/04/24 08:35:28;;;;;;;6.35;4.42;;;;;;;18.68;51.67;99951.48;1710148;82;21320;-76
2022/04/24 08:37:54;;;;;;;6.73;4.83;;;;;;;18.69;51.67;99947.09;1717426;83;21364;-76
2022/04/24 08:40:24;;;;;;;5.47;4.90;;;;;;;18.57;51.33;99954.33;1736717;81;21313;-76
2022/04/24 08:42:57;;;;;;;;;;;;;;;18.39;51.42;99950.55;1731853;81;20945;-76
2022/04/24 08:45:28;;;;;;;5.60;4.87;;;;;;;18.17;51.27;99960.15;1727598;82;20185;-76
2022/04/24 08:47:55;;;;;;;4.20;3.87;;;;;;;17.97;51.19;99956.52;1752089;81;20940;-76
2022/04/24 08:50:29;;;;;;;4.65;4.25;;;;;;;17.85;51.48;99959.36;1739548;80;21011;-76
2022/04/24 08:52:58;;;;;;;5.53;5.05;;;;;;;17.80;51.27;99957.93;1747978;82;21314;-76
2022/04/24 08:55:31;;;;;;;6.70;5.37;;;;;;;17.64;51.14;99954.02;1751971;80;20997;-76
2022/04/24 08:57:57;;;;;;;5.60;5.00;;;;;;;17.56;51.22;99944.45;1745788;82;21384;-76
2022/04/24 09:00:26;;;;;;;5.93;5.43;;;;;;;17.57;51.08;99938.75;1743981;82;21510;-76
2022/04/24 09:02:52;;;;;;;5.80;5.20;;;;;;;17.47;50.77;99938.42;1735948;80;21095;-76
2022/04/24 09:05:18;;;;;;;6.13;5.53;;;;;;;17.26;50.84;99939.13;1730439;82;21012;-76
2022/04/24 09:07:45;;;;;;;6.15;5.60;;;;;;;17.15;50.69;99942.81;1731394;82;20972;-76
2022/04/24 09:10:12;;;;;;;;;;;;;;;17.06;50.60;99945.45;1726454;81;21008;-76
2022/04/24 09:12:39;;;;;;;;;;;;;;;16.90;50.39;99939.34;1720173;82;20123;-76
2022/04/24 09:15:18;;;;;;;7.22;4.75;;;;;;;16.79;50.42;99943.83;1726434;82;20146;-76
2022/04/24 09:17:44;;;;;;;8.03;5.15;;;;;;;16.68;50.40;99940.08;1729737;81;21052;-76
2022/04/24 09:20:19;;;;;;;6.30;5.65;;;;;;;16.49;50.15;99932.34;1729773;82;21061;-76
2022/04/24 09:22:47;;;;;;;5.00;4.55;;;;;;;16.34;50.19;99933.13;1732237;81;20973;-75
2022/04/24 09:25:13;;;;;;;4.60;4.05;;;;;;;16.23;49.84;99935.81;1721083;81;21670;-76
2022/04/24 09:27:40;;;;;;;4.87;3.85;;;;;;;16.12;49.84;99930.28;1717741;81;21060;-76
2022/04/24 09:30:13;;;;;;;4.95;4.00;;;;;;;16.12;49.76;99931.58;1720748;82;20976;-76
2022/04/24 09:32:51;;;;;;;4.28;3.87;;;;;;;16.14;49.79;99939.33;1727946;81;20988;-76
2022/04/24 09:35:33;;;;;;;4.78;4.17;;;;;;;16.16;49.65;99941.41;1701404;84;21704;-76
2022/04/24 09:38:14;;;;;;;6.53;4.30;;;;;;;16.15;49.43;99937.95;1712756;82;21384;-75
2022/04/24 09:40:50;;;;;;;4.50;3.92;;;;;;;16.14;49.26;99936.27;1736656;81;21416;-75
2022/04/24 09:43:19;;;;;;;4.42;3.83;;;;;;;16.13;49.23;99930.66;1719272;82;20944;-75
2022/04/24 09:45:55;;;;;;;4.35;3.95;;;;;;;16.17;49.30;99932.20;1693448;83;20921;-75
2022/04/24 09:48:23;;;;;;;4.55;4.15;;;;;;;16.19;49.07;99932.97;1727537;81;20890;-75
2022/04/24 09:50:50;;;;;;;4.92;3.52;;;;;;;16.21;49.06;99931.13;1724680;81;20878;-75
2022/04/24 09:53:19;;;;;;;3.75;3.37;;;;;;;16.22;48.89;99939.34;1728130;81;20945;-76
2022/04/24 09:55:49;;;;;;;6.20;3.87;;;;;;;16.20;48.70;99937.73;1727495;81;21442;-76
2022/04/24 09:58:16;;;;;;;4.58;4.17;;;;;;;16.20;48.85;99942.95;1731008;81;20872;-76
2022/04/24 10:00:44;;;;;;;4.40;4.00;;;;;;;16.23;48.69;99938.42;1755455;81;20897;-75
2022/04/24 10:03:13;;;;;;;5.33;3.98;;;;;;;16.26;48.70;99936.12;1721452;81;21478;-76
2022/04/24 10:05:42;;;;;;;4.37;4.00;;;;;;;16.33;48.55;99928.37;1699845;83;20870;-76
2022/04/24 10:08:09;;;;;;;4.65;4.25;;;;;;;16.35;48.53;99934.81;1702172;82;21533;-76
2022/04/24 10:10:37;;;;;;;4.53;4.12;;;;;;;16.39;48.65;99921.99;1721646;82;20898;-75
2022/04/24 10:13:09;;;;;;;4.55;4.17;;;;;;;16.48;48.63;99921.06;1728540;82;21481;-75
2022/04/24 10:15:40;;;;;;;4.12;3.83;;;;;;;16.57;48.35;99916.30;1713164;83;20874;-75
2022/04/24 10:18:24;;;;;;;6.53;4.15;;;;;;;16.58;48.45;99920.59;1675444;82;21398;-76
2022/04/24 10:21:21;;;;;;;4.05;3.75;;;;;;;16.61;48.44;99917.83;1719038;82;21366;-76
2022/04/24 10:23:47;;;;;;;6.05;4.22;;;;;;;16.70;48.28;99918.19;1719943;82;20901;-76
2022/04/24 10:26:22;;;;;;;;;;;;;;;16.67;48.23;99926.19;1716644;82;21435;-77
2022/04/24 10:28:49;;;;;;;3.87;3.37;;;;;;;16.69;47.85;99919.58;1700788;82;20433;-77
2022/04/24 10:31:16;;;;;;;4.58;4.17;;;;;;;16.75;48.35;99917.49;1727435;82;21446;-76
2022/04/24 10:33:54;;;;;;;4.37;3.98;;;;;;;16.81;48.22;99911.10;1705408;82;21317;-76
2022/04/24 10:36:21;;;;;;;3.98;3.65;;;;;;;16.98;48.42;99903.22;1717908;82;20948;-76
2022/04/24 10:39:00;;;;;;;4.25;3.95;;;;;;;17.15;48.29;99907.54;1710332;83;21348;-76
2022/04/24 10:41:30;;;;;;;3.95;3.58;;;;;;;17.26;48.07;99909.53;1715359;82;20929;-76
2022/04/24 10:44:12;;;;;;;6.42;4.20;;;;;;;17.26;47.99;99903.00;1703831;82;21405;-76
2022/04/24 10:46:43;;;;;;;4.78;4.37;;;;;;;17.36;48.13;99903.72;1699010;82;20933;-76
2022/04/24 10:49:14;;;;;;;4.90;3.77;;;;;;;17.48;47.89;99904.81;1722303;82;22209;-76
2022/04/24 10:51:44;;;;;;;4.45;4.05;;;;;;;17.48;47.63;99904.81;1702991;82;21366;-76
2022/04/24 10:54:13;;;;;;;5.25;4.05;;;;;;;17.54;47.07;99900.09;1699554;83;21372;-76
2022/04/24 10:56:49;;;;;;;6.12;4.35;;;;;;;17.52;47.46;99892.80;1699821;83;21410;-76
2022/04/24 10:59:18;;;;;;;4.78;4.35;;;;;;;17.57;47.54;99905.61;1711270;82;21382;-76
2022/04/24 11:01:50;;;;;;;5.30;4.60;;;;;;;17.62;47.50;99906.20;1699862;83;21813;-76
2022/04/24 11:04:17;;;;;;;4.92;4.40;;;;;;;17.63;47.28;99899.20;1710224;82;21520;-76
2022/04/24 11:07:05;;;;;;;6.53;4.90;;;;;;;17.53;47.05;99904.94;1708051;81;21412;-76
2022/04/24 11:09:38;;;;;;;5.28;4.75;;;;;;;17.57;47.24;99908.23;1717537;83;20947;-76
2022/04/24 11:12:07;;;;;;;5.60;5.10;;;;;;;17.68;47.36;99897.17;1694895;83;21375;-76
2022/04/24 11:14:35;;;;;;;6.12;4.90;;;;;;;17.74;47.08;99901.59;1685525;84;21031;-76
2022/04/24 11:17:22;;;;;;;5.12;4.62;;;;;;;17.78;47.00;99901.79;1673892;83;21333;-76
2022/04/24 11:19:48;;;;;;;5.42;4.92;;;;;;;17.88;46.90;99897.34;1680156;83;21336;-76
2022/04/24 11:22:16;;;;;;;5.12;4.62;;;;;;;17.87;46.77;99905.66;1683873;83;20958;-76
2022/04/24 11:24:42;;;;;;;5.23;4.73;;;;;;;17.78;46.72;99896.56;1667411;83;21541;-76
2022/04/24 11:27:13;;;;;;;5.22;4.75;;;;;;;17.78;46.87;99896.56;1680405;84;21766;-76
2022/04/24 11:29:42;;;;;;;7.50;4.97;;;;;;;17.81;46.81;99892.46;1680667;83;20892;-76